createdAt,value
2017-12-23T00:00:48.130Z,26.27
2017-12-23T00:03:16.449Z,24.08
2017-12-23T00:05:45.762Z,25.10
2017-12-23T00:08:14.091Z,23.10
2017-12-23T00:10:42.438Z,21.60
2017-12-23T00:13:10.766Z,24.07
2017-12-23T00:15:39.114Z,21.70
2017-12-23T00:18:07.417Z,20.67
2017-12-23T00:20:35.774Z,23.37
2017-12-23T00:23:04.102Z,21.27
2017-12-23T00:25:32.457Z,20.60
2017-12-23T00:28:00.789Z,21.62
2017-12-23T00:30:29.146Z,21.73
2017-12-23T00:32:57.473Z,19.57
2017-12-23T00:35:25.825Z,20.20
2017-12-23T00:37:54.157Z,17.77
2017-12-23T00:40:22.513Z,18.62
2017-12-23T00:42:50.850Z,19.15
2017-12-23T00:45:19.193Z,20.83
2017-12-23T00:47:47.529Z,18.80
2017-12-23T00:50:21.885Z,19.80
2017-12-23T00:52:50.222Z,23.60
2017-12-23T00:55:19.532Z,20.80
2017-12-23T00:57:47.854Z,16.77
2017-12-23T01:00:16.202Z,17.93
2017-12-23T01:02:44.533Z,19.20
2017-12-23T01:05:12.878Z,17.90
2017-12-23T01:07:41.209Z,19.73
2017-12-23T01:10:09.570Z,20.12
2017-12-23T01:12:37.894Z,21.07
2017-12-23T01:15:06.247Z,23.30
2017-12-23T01:17:34.582Z,24.20
2017-12-23T01:20:02.934Z,23.87
2017-12-23T01:22:31.254Z,24.83
2017-12-23T01:24:59.626Z,25.62
2017-12-23T01:27:27.958Z,24.27
2017-12-23T01:29:56.315Z,27.80
2017-12-23T01:32:24.662Z,25.23
2017-12-23T01:34:53.766Z,27.17
2017-12-23T01:37:22.164Z,25.07
2017-12-23T01:39:50.443Z,25.33
2017-12-23T01:42:18.786Z,25.23
2017-12-23T01:44:47.114Z,24.77
2017-12-23T01:47:15.461Z,25.40
2017-12-23T01:49:43.793Z,23.50
2017-12-23T01:52:12.142Z,24.07
2017-12-23T01:54:40.465Z,24.30
2017-12-23T01:57:08.880Z,24.40
2017-12-23T01:59:37.201Z,26.93
2017-12-23T02:02:05.559Z,23.58
2017-12-23T02:04:33.925Z,24.17
2017-12-23T02:07:02.281Z,23.80
2017-12-23T02:09:30.606Z,22.00
2017-12-23T02:11:58.952Z,21.93
2017-12-23T02:14:27.281Z,23.67
2017-12-23T02:16:55.625Z,24.05
2017-12-23T02:19:23.954Z,25.45
2017-12-23T02:21:52.302Z,26.50
2017-12-23T02:24:20.630Z,26.80
2017-12-23T02:26:48.986Z,28.83
2017-12-23T02:29:17.313Z,28.25
2017-12-23T02:31:45.670Z,28.12
2017-12-23T02:34:14.002Z,30.05
2017-12-23T02:36:42.346Z,26.30
2017-12-23T02:39:10.679Z,28.12
2017-12-23T02:41:39.026Z,28.85
2017-12-23T02:44:07.355Z,28.70
2017-12-23T02:46:35.710Z,27.15
2017-12-23T02:49:04.043Z,29.27
2017-12-23T02:51:32.394Z,24.30
2017-12-23T02:54:00.727Z,27.62
2017-12-23T02:56:29.077Z,26.98
2017-12-23T02:58:57.403Z,26.65
2017-12-23T03:01:25.746Z,26.50
2017-12-23T03:03:54.076Z,28.87
2017-12-23T03:06:22.422Z,28.62
2017-12-23T03:08:50.754Z,28.87
2017-12-23T03:11:19.106Z,29.50
2017-12-23T03:13:47.438Z,29.15
2017-12-23T03:16:15.794Z,30.00
2017-12-23T03:18:44.121Z,26.90
2017-12-23T03:21:12.493Z,28.48
2017-12-23T03:23:40.825Z,30.58
2017-12-23T03:26:09.169Z,26.83
2017-12-23T03:28:37.500Z,30.12
2017-12-23T03:31:05.898Z,28.23
2017-12-23T03:33:34.213Z,33.75
2017-12-23T03:36:02.549Z,31.27
2017-12-23T03:38:30.902Z,30.73
2017-12-23T03:40:59.238Z,32.92
2017-12-23T03:43:27.594Z,32.03
2017-12-23T03:45:55.926Z,32.20
2017-12-23T03:48:24.285Z,32.45
2017-12-23T03:50:52.618Z,32.92
2017-12-23T03:53:20.978Z,32.55
2017-12-23T03:55:49.320Z,32.15
2017-12-23T03:58:17.674Z,32.60
2017-12-23T04:00:46.005Z,36.20
2017-12-23T04:03:14.366Z,36.42
2017-12-23T04:05:42.703Z,36.58
2017-12-23T04:08:11.577Z,34.78
2017-12-23T04:10:39.914Z,36.22
2017-12-23T04:13:08.265Z,36.45
2017-12-23T04:15:36.605Z,34.83
2017-12-23T04:18:04.975Z,38.50
2017-12-23T04:20:33.314Z,37.75
2017-12-23T04:23:01.673Z,37.67
2017-12-23T04:25:30.010Z,35.95
2017-12-23T04:27:58.372Z,38.55
2017-12-23T04:30:26.710Z,39.15
2017-12-23T04:32:55.061Z,36.58
2017-12-23T04:35:23.402Z,36.83
2017-12-23T04:37:51.769Z,32.38
2017-12-23T04:40:20.111Z,33.70
2017-12-23T04:42:48.466Z,34.60
2017-12-23T04:45:16.808Z,34.78
2017-12-23T04:47:45.171Z,34.15
2017-12-23T04:50:13.497Z,33.67
2017-12-23T04:52:41.857Z,37.25
2017-12-23T04:55:10.193Z,32.97
2017-12-23T04:57:38.553Z,27.85
2017-12-23T05:00:06.885Z,31.15
2017-12-23T05:02:35.247Z,31.08
2017-12-23T05:05:03.587Z,29.58
2017-12-23T05:07:31.953Z,28.15
2017-12-23T05:10:00.286Z,28.30
2017-12-23T05:12:28.706Z,28.27
2017-12-23T05:14:57.013Z,28.12
2017-12-23T05:17:25.370Z,26.70
2017-12-23T05:19:53.705Z,26.67
2017-12-23T05:22:22.057Z,26.17
2017-12-23T05:24:50.393Z,27.75
2017-12-23T05:27:18.756Z,27.55
2017-12-23T05:29:47.078Z,30.10
2017-12-23T05:32:15.458Z,26.65
2017-12-23T05:34:43.789Z,27.37
2017-12-23T05:37:12.126Z,29.75
2017-12-23T05:39:40.477Z,24.83
2017-12-23T05:42:08.810Z,25.90
2017-12-23T05:44:37.157Z,25.62
2017-12-23T05:47:05.485Z,24.27
2017-12-23T05:49:33.846Z,27.27
2017-12-23T05:52:02.197Z,24.30
2017-12-23T05:54:30.541Z,26.00
2017-12-23T05:56:58.878Z,22.50
2017-12-23T05:59:27.234Z,20.00
2017-12-23T06:01:55.637Z,20.17
2017-12-23T06:04:23.990Z,19.27
2017-12-23T06:06:52.326Z,20.15
2017-12-23T06:09:20.688Z,18.25
2017-12-23T06:11:49.013Z,17.90
2017-12-23T06:14:17.367Z,17.42
2017-12-23T06:16:45.702Z,18.08
2017-12-23T06:19:14.063Z,16.73
2017-12-23T06:21:42.396Z,13.75
2017-12-23T06:24:10.761Z,15.40
2017-12-23T06:26:39.078Z,13.02
2017-12-23T06:29:07.438Z,14.80
2017-12-23T06:31:35.781Z,12.90
2017-12-23T06:34:04.126Z,13.00
2017-12-23T06:36:32.463Z,12.48
2017-12-23T06:39:00.810Z,11.50
2017-12-23T06:41:29.142Z,11.05
2017-12-23T06:43:57.538Z,11.02
2017-12-23T06:46:25.830Z,9.25
2017-12-23T06:48:54.179Z,9.43
2017-12-23T06:51:22.502Z,9.73
2017-12-23T06:53:50.849Z,8.90
2017-12-23T06:56:19.183Z,10.10
2017-12-23T06:58:47.555Z,8.70
2017-12-23T07:01:15.854Z,9.70
2017-12-23T07:03:44.197Z,7.70
2017-12-23T07:06:12.528Z,9.20
2017-12-23T07:08:40.870Z,11.07
2017-12-23T07:11:09.194Z,10.38
2017-12-23T07:13:37.542Z,12.13
2017-12-23T07:16:05.870Z,9.07
2017-12-23T07:18:34.214Z,10.15
2017-12-23T07:21:02.538Z,10.00
2017-12-23T07:23:30.882Z,9.55
2017-12-23T07:25:59.206Z,10.82
2017-12-23T07:28:27.551Z,9.05
2017-12-23T07:30:55.886Z,8.80
2017-12-23T07:33:24.237Z,8.32
2017-12-23T07:35:52.558Z,8.05
2017-12-23T07:38:20.882Z,8.38
2017-12-23T07:43:23.737Z,7.90
2017-12-23T07:45:52.083Z,8.85
2017-12-23T07:48:20.394Z,9.20
2017-12-23T07:50:48.741Z,8.48
2017-12-23T07:53:17.058Z,9.07
2017-12-23T07:55:45.398Z,9.13
2017-12-23T07:58:13.714Z,8.15
2017-12-23T08:00:42.062Z,8.55
2017-12-23T08:03:10.387Z,9.57
2017-12-23T08:05:38.729Z,10.93
2017-12-23T08:08:07.050Z,9.98
2017-12-23T08:10:35.392Z,9.53
2017-12-23T08:13:03.882Z,10.33
2017-12-23T08:15:32.969Z,8.98
2017-12-23T08:18:01.407Z,10.33
2017-12-23T08:20:30.817Z,11.70
2017-12-23T08:22:59.158Z,11.17
2017-12-23T08:25:28.418Z,11.97
2017-12-23T08:27:56.963Z,11.43
2017-12-23T08:30:25.311Z,11.85
2017-12-23T08:32:53.642Z,12.20
2017-12-23T08:35:21.994Z,10.75
2017-12-23T08:37:50.318Z,11.87
2017-12-23T08:40:18.670Z,12.40
2017-12-23T08:42:47.015Z,12.00
2017-12-23T08:45:16.453Z,13.50
2017-12-23T08:47:44.761Z,11.30
2017-12-23T08:50:13.122Z,14.57
2017-12-23T08:52:41.450Z,14.17
2017-12-23T08:55:09.848Z,13.75
2017-12-23T08:57:38.378Z,15.38
2017-12-23T09:00:06.727Z,14.70
2017-12-23T09:02:35.063Z,15.17
2017-12-23T09:05:03.471Z,16.50
2017-12-23T09:07:31.762Z,14.03
2017-12-23T09:10:00.217Z,16.42
2017-12-23T09:12:28.585Z,14.65
2017-12-23T09:14:56.935Z,16.45
2017-12-23T09:17:25.276Z,13.93
2017-12-23T09:19:54.558Z,17.80
2017-12-23T09:22:23.050Z,16.00
2017-12-23T09:24:51.418Z,19.03
2017-12-23T09:27:19.758Z,16.97
2017-12-23T09:29:48.300Z,17.17
2017-12-23T09:32:17.170Z,16.10
2017-12-23T09:34:45.898Z,18.10
2017-12-23T09:37:14.547Z,17.00
2017-12-23T09:39:43.691Z,18.70
2017-12-23T09:42:12.805Z,17.90
2017-12-23T09:44:41.521Z,17.80
2017-12-23T09:47:10.215Z,18.30
2017-12-23T09:49:39.351Z,16.15
2017-12-23T09:52:08.062Z,17.60
2017-12-23T09:54:36.654Z,16.75
2017-12-23T09:57:05.815Z,15.43
2017-12-23T09:59:34.444Z,17.10
2017-12-23T10:02:05.256Z,17.30
2017-12-23T10:04:33.880Z,18.47
2017-12-23T10:07:02.472Z,17.17
2017-12-23T10:09:31.160Z,17.33
2017-12-23T10:11:59.901Z,18.52
2017-12-23T10:14:28.510Z,17.20
2017-12-23T10:16:58.934Z,16.55
2017-12-23T10:19:27.618Z,15.30
2017-12-23T10:21:56.421Z,15.60
2017-12-23T10:24:26.485Z,16.90
2017-12-23T10:26:55.132Z,14.50
2017-12-23T10:29:23.775Z,14.97
2017-12-23T10:31:52.410Z,15.93
2017-12-23T10:34:21.017Z,17.47
2017-12-23T10:36:49.789Z,14.97
2017-12-23T10:39:18.446Z,15.30
2017-12-23T10:41:47.146Z,18.47
2017-12-23T10:44:15.798Z,17.60
2017-12-23T10:46:45.311Z,17.23
2017-12-23T10:49:13.897Z,20.65
2017-12-23T10:51:42.596Z,20.40
2017-12-23T10:54:11.179Z,22.17
2017-12-23T10:56:39.852Z,21.87
2017-12-23T10:59:08.529Z,23.60
2017-12-23T11:01:37.178Z,23.83
2017-12-23T11:04:05.856Z,26.37
2017-12-23T11:06:34.467Z,25.77
2017-12-23T11:09:03.748Z,27.60
2017-12-23T11:11:32.446Z,26.47
2017-12-23T11:14:01.022Z,29.57
2017-12-23T11:16:30.664Z,30.80
2017-12-23T11:18:59.315Z,30.92
2017-12-23T11:21:28.150Z,33.00
2017-12-23T11:23:56.829Z,33.90
2017-12-23T11:26:25.433Z,38.97
2017-12-23T11:28:54.839Z,34.87
2017-12-23T11:31:23.944Z,39.00
2017-12-23T11:33:53.406Z,35.10
2017-12-23T11:36:22.059Z,39.60
2017-12-23T11:38:50.739Z,38.80
2017-12-23T11:41:19.666Z,41.08
2017-12-23T11:43:48.271Z,40.77
2017-12-23T11:46:17.278Z,40.50
2017-12-23T11:48:47.698Z,39.80
2017-12-23T11:51:16.677Z,39.80
2017-12-23T11:53:46.475Z,36.58
2017-12-23T11:56:15.133Z,39.40
2017-12-23T11:58:43.768Z,38.07
2017-12-23T12:01:18.486Z,38.30
2017-12-23T12:03:47.115Z,39.93
2017-12-23T12:06:15.818Z,38.20
2017-12-23T12:08:44.474Z,41.17
2017-12-23T12:11:13.084Z,38.20
2017-12-23T12:13:42.541Z,41.47
2017-12-23T12:16:11.351Z,36.23
2017-12-23T12:18:41.637Z,38.93
2017-12-23T12:21:10.823Z,37.33
2017-12-23T12:23:39.457Z,40.80
2017-12-23T12:26:08.098Z,35.67
2017-12-23T12:28:36.928Z,42.47
2017-12-23T12:31:06.435Z,39.97
2017-12-23T12:33:35.095Z,37.45
2017-12-23T12:36:03.649Z,38.20
2017-12-23T12:38:32.202Z,36.33
2017-12-23T12:41:00.764Z,34.27
2017-12-23T12:43:30.932Z,38.28
2017-12-23T12:45:59.553Z,34.15
2017-12-23T12:48:28.189Z,39.28
2017-12-23T12:50:56.784Z,38.57
2017-12-23T12:53:25.535Z,33.27
2017-12-23T12:55:54.172Z,35.00
2017-12-23T12:58:22.908Z,32.65
2017-12-23T13:00:51.496Z,34.47
2017-12-23T13:03:20.177Z,30.87
2017-12-23T13:05:49.345Z,29.55
2017-12-23T13:08:18.716Z,29.80
2017-12-23T13:10:47.380Z,30.85
2017-12-23T13:13:16.074Z,32.40
2017-12-23T13:15:44.617Z,28.85
2017-12-23T13:18:13.190Z,28.27
2017-12-23T13:20:41.788Z,27.15
2017-12-23T13:23:10.405Z,31.20
2017-12-23T13:25:40.742Z,26.80
2017-12-23T13:28:09.328Z,25.20
2017-12-23T13:30:37.841Z,26.60
2017-12-23T13:33:06.330Z,25.00
2017-12-23T13:35:34.843Z,23.97
2017-12-23T13:38:03.400Z,25.83
2017-12-23T13:40:31.945Z,24.60
2017-12-23T13:43:00.488Z,26.00
2017-12-23T13:45:29.037Z,23.77
2017-12-23T13:47:57.578Z,24.77
2017-12-23T13:50:26.027Z,23.53
2017-12-23T13:52:54.581Z,23.57
2017-12-23T13:55:23.206Z,26.03
2017-12-23T13:57:51.786Z,22.57
2017-12-23T14:00:20.248Z,22.60
2017-12-23T14:02:48.859Z,21.67
2017-12-23T14:05:17.422Z,23.70
2017-12-23T14:07:46.008Z,21.87
2017-12-23T14:10:14.557Z,20.37
2017-12-23T14:12:43.264Z,21.03
2017-12-23T14:15:11.790Z,22.00
2017-12-23T14:17:40.470Z,23.63
2017-12-23T14:20:09.110Z,23.20
2017-12-23T14:22:37.781Z,21.42
2017-12-23T14:25:06.625Z,24.50
2017-12-23T14:27:35.202Z,21.45
2017-12-23T14:30:03.718Z,23.23
2017-12-23T14:32:32.330Z,21.10
2017-12-23T14:35:00.902Z,21.87
2017-12-23T14:37:29.563Z,21.25
2017-12-23T14:39:58.139Z,22.57
2017-12-23T14:42:26.894Z,20.17
2017-12-23T14:44:55.557Z,22.42
2017-12-23T14:47:24.116Z,21.30
2017-12-23T14:49:52.783Z,22.60
2017-12-23T14:52:21.967Z,22.33
2017-12-23T14:54:51.575Z,23.70
2017-12-23T14:57:20.213Z,22.55
2017-12-23T14:59:48.769Z,25.20
2017-12-23T15:02:17.413Z,23.00
2017-12-23T15:04:46.051Z,21.87
2017-12-23T15:07:14.654Z,19.67
2017-12-23T15:09:43.314Z,22.20
2017-12-23T15:12:11.902Z,21.30
2017-12-23T15:14:42.038Z,22.85
2017-12-23T15:17:12.551Z,22.43
2017-12-23T15:19:41.111Z,18.40
2017-12-23T15:22:09.701Z,22.37
2017-12-23T15:24:39.193Z,21.45
2017-12-23T15:27:07.821Z,21.50
2017-12-23T15:29:37.221Z,20.27
2017-12-23T15:32:05.861Z,20.53
2017-12-23T15:34:34.497Z,22.85
2017-12-23T15:37:03.129Z,20.20
2017-12-23T15:39:31.844Z,21.40
2017-12-23T15:42:00.373Z,23.23
2017-12-23T15:44:28.999Z,22.75
2017-12-23T15:46:58.378Z,21.75
2017-12-23T15:49:27.133Z,21.63
2017-12-23T15:51:55.838Z,21.98
2017-12-23T15:54:25.555Z,21.85
2017-12-23T15:56:54.289Z,20.90
2017-12-23T15:59:22.960Z,20.00
2017-12-23T16:01:51.631Z,21.53
2017-12-23T16:04:20.341Z,22.30
2017-12-23T16:06:49.482Z,22.33
2017-12-23T16:09:18.084Z,21.17
2017-12-23T16:11:46.697Z,24.00
2017-12-23T16:14:15.697Z,20.37
2017-12-23T16:16:44.403Z,25.07
2017-12-23T16:19:13.021Z,22.23
2017-12-23T16:21:41.649Z,23.50
2017-12-23T16:24:10.886Z,22.05
2017-12-23T16:26:39.508Z,22.50
2017-12-23T16:29:08.246Z,23.20
2017-12-23T16:31:37.054Z,23.10
2017-12-23T16:34:05.681Z,21.57
2017-12-23T16:36:34.244Z,21.02
2017-12-23T16:39:02.942Z,22.90
2017-12-23T16:41:31.576Z,23.83
2017-12-23T16:44:00.989Z,23.02
2017-12-23T16:46:29.687Z,21.40
2017-12-23T16:48:59.093Z,22.98
2017-12-23T16:51:27.860Z,22.63
2017-12-23T16:53:56.555Z,23.53
2017-12-23T16:56:25.176Z,23.77
2017-12-23T16:58:54.313Z,24.90
2017-12-23T17:01:22.913Z,24.20
2017-12-23T17:03:53.221Z,23.30
2017-12-23T17:06:21.964Z,23.90
2017-12-23T17:08:51.382Z,22.30
2017-12-23T17:11:20.404Z,26.23
2017-12-23T17:13:49.120Z,23.87
2017-12-23T17:16:17.719Z,22.17
2017-12-23T17:18:46.305Z,24.23
2017-12-23T17:21:14.937Z,22.08
2017-12-23T17:23:43.842Z,25.70
2017-12-23T17:26:13.606Z,21.12
2017-12-23T17:28:55.080Z,23.30
2017-12-23T17:31:24.471Z,21.03
2017-12-23T17:33:53.200Z,20.83
2017-12-23T17:36:22.842Z,21.80
2017-12-23T17:38:52.819Z,22.23
2017-12-23T17:41:21.488Z,24.27
2017-12-23T17:43:51.040Z,24.37
2017-12-23T17:46:19.799Z,22.85
2017-12-23T17:48:48.371Z,21.70
2017-12-23T17:51:18.231Z,25.03
2017-12-23T17:53:46.778Z,23.23
2017-12-23T17:56:15.956Z,24.02
2017-12-23T17:58:48.744Z,24.73
2017-12-23T18:01:17.658Z,25.87
2017-12-23T18:03:46.038Z,24.77
2017-12-23T18:06:14.637Z,27.40
2017-12-23T18:08:43.267Z,27.20
2017-12-23T18:11:11.879Z,25.27
2017-12-23T18:13:40.561Z,27.25
2017-12-23T18:16:09.899Z,28.90
2017-12-23T18:18:38.575Z,30.30
2017-12-23T18:21:07.239Z,28.30
2017-12-23T18:23:35.988Z,30.47
2017-12-23T18:26:05.538Z,28.55
2017-12-23T18:28:34.119Z,31.27
2017-12-23T18:31:02.750Z,28.07
2017-12-23T18:33:32.061Z,29.35
2017-12-23T18:36:00.677Z,29.53
2017-12-23T18:38:29.271Z,31.07
2017-12-23T18:40:58.683Z,28.70
2017-12-23T18:43:27.269Z,27.87
2017-12-23T18:45:55.892Z,32.23
2017-12-23T18:48:24.451Z,26.60
2017-12-23T18:50:53.133Z,27.92
2017-12-23T18:53:21.843Z,29.17
2017-12-23T18:55:50.516Z,27.95
2017-12-23T18:58:19.117Z,29.33
2017-12-23T19:00:48.256Z,29.02
2017-12-23T19:03:16.824Z,29.37
2017-12-23T19:05:45.679Z,27.70
2017-12-23T19:08:14.238Z,25.03
2017-12-23T19:10:43.459Z,27.80
2017-12-23T19:13:12.052Z,27.33
2017-12-23T19:15:40.804Z,27.40
2017-12-23T19:18:09.485Z,25.37
2017-12-23T19:20:38.233Z,24.20
2017-12-23T19:23:06.852Z,25.23
2017-12-23T19:25:35.576Z,24.73
2017-12-23T19:28:04.371Z,26.33
2017-12-23T19:30:33.839Z,25.70
2017-12-23T19:33:02.431Z,26.70
2017-12-23T19:35:31.794Z,27.33
2017-12-23T19:38:00.411Z,24.40
2017-12-23T19:40:29.089Z,23.50
2017-12-23T19:42:57.676Z,22.03
2017-12-23T19:45:26.374Z,23.07
2017-12-23T19:47:54.770Z,21.77
2017-12-23T19:50:23.145Z,23.40
2017-12-23T19:52:51.474Z,25.07
2017-12-23T19:58:13.298Z,26.67
2017-12-23T20:00:41.658Z,27.83
2017-12-23T20:03:09.991Z,27.07
2017-12-23T20:05:38.343Z,26.10
2017-12-23T20:08:07.661Z,28.80
2017-12-23T20:10:36.018Z,26.83
2017-12-23T20:13:04.354Z,29.27
2017-12-23T20:15:32.704Z,28.93
2017-12-23T20:18:01.125Z,31.17
2017-12-23T20:20:29.451Z,30.50
2017-12-23T20:22:57.995Z,29.50
2017-12-23T20:25:27.211Z,30.00
2017-12-23T20:27:56.370Z,30.67
2017-12-23T20:30:24.713Z,31.73
2017-12-23T20:32:53.250Z,29.77
2017-12-23T20:35:21.697Z,32.47
2017-12-23T20:37:50.075Z,33.10
2017-12-23T20:40:18.414Z,31.97
2017-12-23T20:42:46.777Z,30.07
2017-12-23T20:45:16.110Z,30.27
2017-12-23T20:47:44.467Z,31.27
2017-12-23T20:50:12.827Z,31.17
2017-12-23T20:52:41.338Z,30.93
2017-12-23T20:55:09.673Z,30.33
2017-12-23T20:57:38.036Z,29.90
2017-12-23T21:00:06.366Z,29.60
2017-12-23T21:02:34.806Z,28.57
2017-12-23T21:05:03.258Z,28.83
2017-12-23T21:07:31.610Z,28.60
2017-12-23T21:09:59.943Z,27.67
2017-12-23T21:12:28.344Z,27.08
2017-12-23T21:14:56.698Z,29.83
2017-12-23T21:17:25.057Z,26.50
2017-12-23T21:19:53.388Z,26.50
2017-12-23T21:22:21.734Z,28.27
2017-12-23T21:24:50.097Z,27.75
2017-12-23T21:27:18.775Z,29.10
2017-12-23T21:29:47.102Z,29.90
2017-12-23T21:32:15.454Z,26.50
2017-12-23T21:34:43.834Z,27.67
2017-12-23T21:37:12.402Z,24.83
2017-12-23T21:39:40.741Z,26.30
2017-12-23T21:42:09.086Z,29.10
2017-12-23T21:44:37.421Z,26.00
2017-12-23T21:47:06.271Z,26.17
2017-12-23T21:49:34.589Z,24.77
2017-12-23T21:52:04.263Z,25.27
2017-12-23T21:54:32.595Z,24.67
2017-12-23T21:57:00.984Z,25.83
2017-12-23T21:59:29.330Z,23.20
2017-12-23T22:01:57.678Z,21.73
2017-12-23T22:04:26.006Z,20.88
2017-12-23T22:06:54.358Z,22.57
2017-12-23T22:09:22.715Z,21.03
2017-12-23T22:11:51.046Z,23.57
2017-12-23T22:14:19.378Z,25.80
2017-12-23T22:16:47.730Z,22.98
2017-12-23T22:19:16.064Z,25.50
2017-12-23T22:21:44.415Z,24.47
2017-12-23T22:24:12.757Z,24.63
2017-12-23T22:26:41.091Z,25.37
2017-12-23T22:29:09.439Z,24.70
2017-12-23T22:31:37.776Z,26.27
2017-12-23T22:34:06.122Z,29.85
2017-12-23T22:36:34.453Z,29.43
2017-12-23T22:39:02.806Z,29.77
2017-12-23T22:41:31.133Z,32.17
2017-12-23T22:43:59.534Z,33.40
2017-12-23T22:46:27.815Z,30.95
2017-12-23T22:48:56.162Z,32.13
2017-12-23T22:51:24.490Z,32.87
2017-12-23T22:53:52.842Z,31.30
2017-12-23T22:56:21.170Z,28.35
2017-12-23T22:58:49.518Z,32.03
2017-12-23T23:01:17.922Z,27.80
2017-12-23T23:03:46.274Z,26.67
2017-12-23T23:06:14.601Z,28.58
2017-12-23T23:08:42.957Z,26.42
2017-12-23T23:11:11.277Z,26.80
2017-12-23T23:13:39.625Z,26.52
2017-12-23T23:16:07.955Z,25.48
2017-12-23T23:18:36.302Z,21.98
2017-12-23T23:21:04.629Z,20.55
2017-12-23T23:23:32.978Z,24.85
2017-12-23T23:26:01.306Z,21.08
2017-12-23T23:28:29.659Z,20.80
2017-12-23T23:30:57.987Z,21.92
2017-12-23T23:33:26.334Z,20.15
2017-12-23T23:35:54.675Z,19.52
2017-12-23T23:38:23.029Z,20.85
2017-12-23T23:40:51.357Z,19.12
2017-12-23T23:43:19.706Z,19.87
2017-12-23T23:45:48.030Z,20.65
2017-12-23T23:48:16.374Z,20.55
2017-12-23T23:50:44.703Z,19.25
2017-12-23T23:53:13.050Z,19.12
2017-12-23T23:55:41.379Z,18.48
2017-12-23T23:58:09.743Z,19.67
